Flight Track Log - Related Links

Times and Time Zones

All times are in EDT time to prevent confusion due to time zone crossing. See the GPD20 flight status page for this flight to view local times or setup timezone preferences in your user account.

Time Position Orientation Groundspeed Altitude Reporting Facility
EDT Latitude Longitude Course Direction KTS MPH feet Rate Location/Type
Mon 09:51:03 AM 41.3711 -70.7747 298° West 102 117 3,800  Level Boston Center
Mon 09:52:30 AM 41.3614 -70.8306 257° West 136 157 4,900 730 Climbing Boston Center
Mon 09:53:31 AM 41.3578 -70.8692 263° West 118 136 5,600 689 Climbing Boston Center
Mon 09:54:00 AM 41.5041 -70.9121 294° West  Level FlightAware Approximate
Mon 09:54:32 AM 41.3500 -70.9136 257° West 113 130 6,300  Level Boston Center
Mon 09:55:00 AM 41.5277 -70.9500 North  Level FlightAware Approximate
Mon 09:55:32 AM 41.3444 -70.9553 260° West 126 145 6,600  Level Boston Center
Mon 09:56:00 AM 41.5506 -70.9930 298° West  Level FlightAware Approximate
Mon 09:56:32 AM 41.3408 -71.0106 265° West 141 162 6,600  Level Boston Center
Mon 09:57:33 AM 41.3333 -71.0606 259° West 140 161 6,600 -49 Level Boston Center
Mon 09:58:34 AM 41.3275 -71.1133 262° West 141 162 6,500 -49 Descending Boston Center
Mon 09:59:35 AM 41.3219 -71.1658 262° West 144 166 6,500  Level Boston Center
Mon 10:00:36 AM 41.3142 -71.2186 259° West 142 163 6,500  Level Boston Center
Mon 10:01:37 AM 41.3044 -71.2658 255° West 142 163 6,500  Level Boston Center
Mon 10:02:38 AM 41.2944 -71.3183 256° West 141 162 6,500  Level Boston Center
Mon 10:04:38 AM 41.2767 -71.4236 257° West 144 166 6,500  Level Boston Center
Mon 10:05:39 AM 41.2689 -71.4736 258° West 142 163 6,500  Level Boston Center
Mon 10:06:39 AM 41.2631 -71.5261 262° West 143 165 6,500  Level Boston Center
Mon 10:07:40 AM 41.2550 -71.5786 258° West 142 163 6,500  Level Boston Center
Mon 10:08:40 AM 41.2472 -71.6311 259° West 148 170 6,500  Level Boston Center
Mon 10:09:41 AM 41.2433 -71.6864 265° West 143 165 6,500  Level Boston Center
Mon 10:10:42 AM 41.2353 -71.7389 258° West 139 160 6,500  Level Boston Center
Mon 10:11:45 AM 41.2272 -71.7914 258° West 140 161 6,500  Level Boston Center
Mon 10:12:46 AM 41.2192 -71.8442 259° West 142 163 6,500  Level Boston Center
Mon 10:13:46 AM 41.2111 -71.8939 258° West 140 161 6,500  Level Boston Center
Mon 10:14:47 AM 41.2031 -71.9464 258° West 141 162 6,500  Level Boston Center
Mon 10:15:47 AM 41.1950 -72.0014 259° West 141 162 6,500  Level Boston Center
Mon 10:16:48 AM 41.1869 -72.0511 258° West 139 160 6,500  Level Boston Center
Mon 10:18:19 AM 41.1667 -72.1167 248° West 138 159 6,500 -119 Level New York TRACON
Mon 10:19:19 AM 41.1667 -72.1833 270° West 151 174 6,200 -350 Descending New York TRACON
Mon 10:20:19 AM 41.1667 -72.2333 270° West 151 174 5,800 -350 Descending New York TRACON
Mon 10:21:19 AM 41.1500 -72.2833 246° West 152 175 5,500 -350 Descending New York TRACON
Mon 10:22:19 AM 41.1500 -72.3500 270° West 153 176 5,100 -350 Descending New York TRACON
Mon 10:23:19 AM 41.1333 -72.4000 246° West 152 175 4,800 -286 Descending New York TRACON
Mon 10:24:25 AM 41.1333 -72.4667 270° West 151 174 4,500 -143 Descending New York TRACON
Mon 10:25:25 AM 41.1167 -72.5167 246° West 144 166 4,500  Level New York TRACON
Mon 10:26:25 AM 41.1167 -72.5667 270° West 144 166 4,500  Level New York TRACON
Mon 10:27:25 AM 41.1000 -72.6167 246° West 142 163 4,500  Level New York TRACON
Mon 10:28:25 AM 41.1000 -72.6667 270° West 147 169 4,500  Level New York TRACON
Mon 10:29:25 AM 41.0833 -72.7167 246° West 142 163 4,500  Level New York TRACON
Mon 10:30:25 AM 41.0833 -72.7667 270° West 144 166 4,500  Level New York TRACON
Mon 10:31:26 AM 41.0667 -72.8167 246° West 144 166 4,500  Level New York TRACON
Mon 10:32:31 AM 41.0667 -72.8833 270° West 143 165 4,500  Level New York TRACON
Mon 10:33:25 AM 41.0500 -72.9167 236° Southwest 145 167 4,500  Level New York TRACON
Mon 10:34:25 AM 41.0500 -72.9833 270° West 146 168 4,500  Level New York TRACON
Mon 10:35:31 AM 41.0333 -73.0333 246° West 145 167 4,500 -50 Level New York TRACON
Mon 10:36:26 AM 41.0333 -73.0833 270° West 147 169 4,400 -209 Descending New York TRACON
Mon 10:37:26 AM 41.0167 -73.1333 246° West 151 174 4,100 -288 Descending New York TRACON
Mon 10:38:31 AM 41.0167 -73.2000 270° West 150 173 3,800 -250 Descending New York TRACON
Mon 10:39:26 AM 41.0000 -73.2500 246° West 152 175 3,600 -261 Descending New York TRACON
Mon 10:40:26 AM 41.0000 -73.3000 270° West 149 171 3,300 -300 Descending New York TRACON
Mon 10:41:26 AM 40.9833 -73.3500 246° West 146 168 3,000 -350 Descending New York TRACON
Mon 10:42:26 AM 40.9833 -73.4000 270° West 147 169 2,600 -250 Descending New York TRACON
Mon 10:43:26 AM 40.9667 -73.4500 246° West 145 167 2,500 -50 Descending New York TRACON
Mon 10:44:26 AM 40.9667 -73.5000 270° West 144 166 2,500  Level New York TRACON
Mon 10:45:26 AM 40.9667 -73.5500 270° West 144 166 2,500  Level New York TRACON
Mon 10:46:26 AM 40.9667 -73.6167 270° West 146 168 2,500 -150 Level New York TRACON
Mon 10:47:26 AM 40.9667 -73.6667 270° West 153 176 2,200 -403 Descending New York TRACON
Mon 10:48:25 AM 40.9667 -73.7167 270° West 155 178 1,700 -454 Descending New York TRACON
Mon 10:49:25 AM 40.9667 -73.7833 270° West 151 174 1,300 -200 Descending New York TRACON
Mon 10:50:25 AM 40.9667 -73.8333 270° West 147 169 1,300  Level New York TRACON
Mon 10:51:20 AM 40.9667 -73.8833 270° West 146 168 1,300  Level New York TRACON
Mon 10:52:19 AM 40.9500 -73.9167 237° Southwest 146 168 1,300  Level New York TRACON
Mon 10:53:14 AM 40.9167 -73.9667 229° Southwest 145 167 1,300 -50 Level New York TRACON
Mon 10:54:19 AM 40.9000 -74.0000 237° Southwest 143 165 1,200 -350 Descending New York TRACON
Mon 10:55:14 AM 40.8667 -74.0333 217° Southwest 126 145 600 Descending New York TRACON
Mon 10:57:00 AM 40.8500 -74.0500 258° West  Level FlightAware Approximate
Mon 11:04:00 AM 40.8501 -74.0608 258° West  Level Estimated
Mon 11:21:56 AM 40.8667 -74.0000 49° Northeast 170 196 1,300  Level New York TRACON
Mon 11:22:50 AM 40.9000 -73.9667 37° Northeast 173 199 1,300 263 Level New York TRACON
Mon 11:23:50 AM 40.9333 -73.9333 37° Northeast 161 185 1,800 550 Climbing New York TRACON
Mon 11:24:50 AM 40.9667 -73.8833 49° Northeast 161 185 2,400 571 Climbing New York TRACON
Mon 11:25:56 AM 41.0000 -73.8333 49° Northeast 162 186 3,000 550 Climbing New York TRACON
Mon 11:26:50 AM 41.0167 -73.8000 56° Northeast 160 184 3,500 300 Climbing New York TRACON
Mon 11:27:56 AM 41.0500 -73.7500 49° Northeast 172 198 3,600 50 Climbing New York TRACON
Mon 11:28:50 AM 41.0833 -73.7000 48° Northeast 208 239 3,600 -50 Level New York TRACON
Mon 11:29:56 AM 41.1167 -73.6500 48° Northeast 175 201 3,500 -50 Descending New York TRACON
Mon 11:30:50 AM 41.1500 -73.6000 48° Northeast 178 205 3,500  Level New York TRACON
Mon 11:31:50 AM 41.1833 -73.5667 37° Northeast 177 204 3,500  Level New York TRACON
Mon 11:32:56 AM 41.2333 -73.5000 45° Northeast 178 205 3,500  Level New York TRACON
Mon 11:33:50 AM 41.2667 -73.4667 37° Northeast 178 205 3,500  Level New York TRACON
Mon 11:34:50 AM 41.3000 -73.4167 48° Northeast 176 203 3,500  Level New York TRACON
Mon 11:35:50 AM 41.3333 -73.3667 48° Northeast 182 209 3,500  Level New York TRACON
Mon 11:36:50 AM 41.3500 -73.3167 66° East 178 205 3,500  Level New York TRACON

Login

Don't have an account? Register now (free) for customized features, flight alerts, and more!